Time;durP1;ratioP1;P1;durP2;ratioP2;P2;SDS_P1;SDS_P2;PMS_P1;PMS_P2;Temp;Humidity;BMP_temperature;BMP_pressure;BME280_temperature;BME280_humidity;BME280_pressure;Samples;Min_cycle;Max_cycle;Signal;HPM_P1;HPM_P2
2020/12/05 00:02:17;;;;;;;47.17;27.53;;;;;;;2.48;94.26;93705.25;5037738;28;20451;-87
2020/12/05 00:04:43;;;;;;;49.40;26.73;;;;;;;2.51;94.68;93694.22;5059870;28;20446;-85
2020/12/05 00:07:11;;;;;;;52.10;26.50;;;;;;;2.71;94.00;93695.03;5060167;28;20458;-85
2020/12/05 00:09:38;;;;;;;47.27;26.67;;;;;;;2.68;93.56;93691.50;5058893;28;20447;-85
2020/12/05 00:12:05;;;;;;;54.23;27.97;;;;;;;2.67;93.22;93716.00;5050033;28;20470;-87
2020/12/05 00:14:32;;;;;;;49.00;25.13;;;;;;;2.65;93.09;93729.88;5042089;28;20471;-87
2020/12/05 00:16:58;;;;;;;48.77;25.33;;;;;;;2.69;93.78;93724.84;5036752;28;20470;-86
2020/12/05 00:19:25;;;;;;;49.17;26.33;;;;;;;2.72;93.96;93709.03;5036549;28;20513;-86
2020/12/05 00:21:52;;;;;;;41.77;24.80;;;;;;;2.87;93.48;93690.91;5036941;28;20443;-85
2020/12/05 00:24:19;;;;;;;45.80;24.87;;;;;;;2.91;93.11;93693.16;5036594;28;20432;-84
2020/12/05 00:26:48;;;;;;;42.43;22.60;;;;;;;2.86;92.44;93673.50;5036264;28;20985;-84
2020/12/05 00:29:14;;;;;;;42.83;23.80;;;;;;;2.70;92.86;93670.34;5036254;28;20442;-84
2020/12/05 00:31:41;;;;;;;49.67;26.43;;;;;;;2.63;93.13;93671.16;5036391;28;20510;-82
2020/12/05 00:34:07;;;;;;;46.97;23.43;;;;;;;2.51;93.56;93659.63;5036664;28;20989;-83
2020/12/05 00:36:33;;;;;;;52.20;26.73;;;;;;;2.40;94.15;93662.78;5035993;28;20475;-84
2020/12/05 00:39:00;;;;;;;42.10;23.90;;;;;;;2.36;94.25;93662.47;5036231;28;20482;-85
2020/12/05 00:41:27;;;;;;;46.10;25.50;;;;;;;2.40;93.74;93670.06;5035826;28;20454;-85
2020/12/05 00:43:53;;;;;;;45.27;24.13;;;;;;;2.50;93.03;93668.16;5035790;28;20455;-85
2020/12/05 00:46:20;;;;;;;45.87;24.50;;;;;;;2.46;92.69;93678.50;5036038;28;20478;-83
2020/12/05 00:48:46;;;;;;;45.23;25.20;;;;;;;2.44;92.07;93652.47;5036226;28;20802;-83
2020/12/05 00:51:13;;;;;;;44.63;24.00;;;;;;;2.38;92.96;93657.31;5036531;28;20446;-82
2020/12/05 00:53:40;;;;;;;41.50;22.77;;;;;;;2.41;93.34;93656.19;5036141;28;20451;-83
2020/12/05 00:56:06;;;;;;;45.90;23.97;;;;;;;2.47;93.49;93661.28;5035838;28;20459;-84
2020/12/05 00:58:35;;;;;;;44.27;25.63;;;;;;;2.52;93.83;93636.38;5035986;28;20469;-86
2020/12/05 01:01:02;;;;;;;42.43;24.33;;;;;;;2.62;93.91;93629.84;5036582;28;20435;-86
2020/12/05 01:03:29;;;;;;;42.83;23.07;;;;;;;2.72;93.60;93640.53;5036053;28;20428;-86
2020/12/05 01:05:55;;;;;;;43.90;24.40;;;;;;;2.72;94.34;93661.84;5036314;28;20459;-86
2020/12/05 01:08:22;;;;;;;40.67;24.10;;;;;;;2.70;94.23;93667.00;5036128;28;20446;-86
2020/12/05 01:10:48;;;;;;;37.97;22.70;;;;;;;2.86;93.96;93694.81;5036087;28;20783;-85
2020/12/05 01:13:15;;;;;;;40.37;23.13;;;;;;;2.92;93.51;93713.88;5036404;28;20422;-87
2020/12/05 01:15:42;;;;;;;44.97;23.57;;;;;;;2.90;93.92;93726.34;5037883;28;20803;-86
2020/12/05 01:18:09;;;;;;;38.53;22.60;;;;;;;2.89;93.69;93741.63;5035671;28;20497;-87
2020/12/05 01:20:36;;;;;;;41.63;24.43;;;;;;;2.99;94.14;93750.38;5035817;28;20510;-85
2020/12/05 01:23:02;;;;;;;43.33;25.43;;;;;;;2.91;94.19;93746.41;5035647;28;20438;-85
2020/12/05 01:25:28;;;;;;;43.23;24.27;;;;;;;2.95;94.05;93746.69;5035604;28;20442;-85
2020/12/05 01:27:55;;;;;;;46.60;25.33;;;;;;;2.97;94.54;93747.56;5035096;28;20452;-85
2020/12/05 01:30:21;;;;;;;44.73;25.27;;;;;;;3.01;94.53;93763.81;5035412;28;20437;-86
2020/12/05 01:32:49;;;;;;;49.30;23.73;;;;;;;3.08;94.22;93781.66;5034235;28;20936;-86
2020/12/05 01:35:16;;;;;;;45.43;24.10;;;;;;;3.15;93.92;93788.88;5035770;28;20539;-87
2020/12/05 01:37:42;;;;;;;56.67;26.00;;;;;;;3.16;93.54;93803.56;5036243;28;20581;-87
2020/12/05 01:40:08;;;;;;;41.20;24.20;;;;;;;3.07;94.11;93788.25;5034924;28;20461;-85
2020/12/05 01:42:35;;;;;;;38.97;24.73;;;;;;;3.06;93.71;93770.88;5036040;28;20438;-85
2020/12/05 01:45:01;;;;;;;49.87;26.23;;;;;;;3.12;93.91;93779.31;5038854;28;20432;-87
2020/12/05 01:47:28;;;;;;;44.40;23.17;;;;;;;3.11;94.36;93795.84;5043655;28;20459;-84
2020/12/05 01:49:57;;;;;;;39.10;23.83;;;;;;;3.17;94.24;93783.69;5058869;28;20462;-86
2020/12/05 01:52:23;;;;;;;42.60;23.40;;;;;;;3.17;94.34;93770.34;5058853;28;20438;-85
2020/12/05 01:54:51;;;;;;;35.77;21.30;;;;;;;3.15;94.59;93772.88;5058800;28;20450;-85
2020/12/05 01:57:21;;;;;;;41.07;22.40;;;;;;;3.18;94.98;93787.75;5043432;28;20458;-85
2020/12/05 01:59:48;;;;;;;43.50;22.60;;;;;;;3.26;95.21;93792.28;5033998;28;20468;-84
2020/12/05 02:02:14;;;;;;;42.87;25.87;;;;;;;3.21;95.20;93809.91;5034265;28;20875;-86
2020/12/05 02:04:48;;;;;;;50.13;26.17;;;;;;;3.15;95.66;93812.84;5033098;28;20432;-85
2020/12/05 02:07:35;;;;;;;40.23;24.03;;;;;;;3.13;96.41;93812.66;5034089;28;20462;-86
2020/12/05 02:10:04;;;;;;;40.07;23.70;;;;;;;3.28;96.08;93803.09;5033947;28;20895;-85
2020/12/05 02:12:35;;;;;;;41.83;24.03;;;;;;;3.19;95.75;93794.50;5034272;28;20502;-84
2020/12/05 02:15:06;;;;;;;36.57;21.80;;;;;;;3.09;96.43;93790.38;5034011;28;20796;-86
2020/12/05 02:17:38;;;;;;;33.37;20.50;;;;;;;3.02;97.33;93823.84;5034151;28;20474;-85
2020/12/05 02:20:05;;;;;;;29.10;17.60;;;;;;;2.94;98.18;93830.50;5040156;28;20539;-85
2020/12/05 02:22:52;;;;;;;36.43;21.43;;;;;;;2.92;98.66;93855.03;5058126;28;20423;-84
2020/12/05 02:25:20;;;;;;;31.90;18.13;;;;;;;3.03;98.66;93869.81;5058028;28;20458;-85
2020/12/05 02:27:47;;;;;;;31.67;19.20;;;;;;;3.00;98.60;93879.63;5042505;28;20855;-85
2020/12/05 02:30:13;;;;;;;33.27;20.20;;;;;;;2.94;98.95;93873.13;5034448;28;20445;-86
2020/12/05 02:32:40;;;;;;;33.47;19.57;;;;;;;2.89;99.43;93880.09;5034572;28;20486;-85
2020/12/05 02:35:07;;;;;;;40.47;22.13;;;;;;;2.85;99.33;93895.06;5035233;28;20518;-85
2020/12/05 02:37:39;;;;;;;40.67;21.70;;;;;;;2.82;99.29;93878.19;5034643;28;20475;-85
2020/12/05 02:40:06;;;;;;;37.73;22.70;;;;;;;2.91;99.25;93868.91;5034929;28;20468;-85
2020/12/05 02:42:35;;;;;;;32.93;20.70;;;;;;;2.81;98.96;93881.44;5034185;28;20446;-86
2020/12/05 02:45:01;;;;;;;33.63;19.53;;;;;;;2.74;99.11;93885.56;5045915;28;20439;-85
2020/12/05 02:47:28;;;;;;;32.83;19.30;;;;;;;2.68;99.46;93914.41;5058145;28;20422;-85
2020/12/05 02:50:36;;;;;;;32.10;19.80;;;;;;;2.66;99.72;93930.22;5058198;28;20466;-85
2020/12/05 02:53:02;;;;;;;33.17;19.40;;;;;;;2.65;99.41;93958.78;5055918;28;20419;-85
2020/12/05 02:55:29;;;;;;;31.93;19.87;;;;;;;2.63;99.08;93969.25;5034226;28;20450;-85
2020/12/05 02:57:56;;;;;;;27.80;17.40;;;;;;;2.57;100.00;93984.75;5034863;28;20462;-83
2020/12/05 03:00:23;;;;;;;26.57;18.13;;;;;;;2.52;99.96;94003.59;5034255;28;20453;-83
2020/12/05 03:02:50;;;;;;;28.07;16.67;;;;;;;2.56;99.97;93998.63;5034115;28;20454;-84
2020/12/05 03:05:17;;;;;;;31.20;18.43;;;;;;;2.49;100.00;93999.38;5033660;28;20446;-83
2020/12/05 03:07:43;;;;;;;31.20;18.50;;;;;;;2.44;100.00;94002.97;5033822;28;20481;-84
2020/12/05 03:10:10;;;;;;;24.83;16.40;;;;;;;2.51;100.00;94015.50;5033507;28;21011;-86
2020/12/05 03:12:36;;;;;;;24.87;17.07;;;;;;;2.47;99.93;94010.56;5033673;28;20812;-86
2020/12/05 03:15:03;;;;;;;29.20;17.80;;;;;;;2.46;100.00;94016.41;5033704;28;20409;-86
2020/12/05 03:17:30;;;;;;;31.50;19.27;;;;;;;2.43;100.00;94018.22;5036117;28;20476;-87
2020/12/05 03:19:56;;;;;;;29.23;18.40;;;;;;;2.41;100.00;94004.72;5036549;28;20487;-86
2020/12/05 03:22:23;;;;;;;30.27;16.50;;;;;;;2.40;99.91;94013.28;5036542;28;20813;-87
2020/12/05 03:24:49;;;;;;;30.17;19.23;;;;;;;2.36;100.00;93981.00;5036769;28;20431;-87
2020/12/05 03:27:16;;;;;;;29.93;16.77;;;;;;;2.34;100.00;93983.53;5036348;28;20470;-86
2020/12/05 03:29:42;;;;;;;26.23;16.50;;;;;;;2.28;100.00;93970.44;5036084;28;20443;-86
2020/12/05 03:32:13;;;;;;;29.93;17.13;;;;;;;2.26;100.00;93983.56;5036439;28;20437;-85
2020/12/05 03:34:41;;;;;;;23.60;14.93;;;;;;;2.31;100.00;94006.59;5036931;28;20835;-84
2020/12/05 03:37:08;;;;;;;18.97;13.40;;;;;;;2.37;100.00;94017.03;5037330;28;20481;-83
2020/12/05 03:39:35;;;;;;;22.80;14.93;;;;;;;2.45;100.00;94038.94;5038024;28;20518;-83
2020/12/05 03:42:01;;;;;;;19.60;13.83;;;;;;;2.39;100.00;94054.41;5038220;28;20439;-82
2020/12/05 03:44:28;;;;;;;22.23;14.60;;;;;;;2.48;100.00;94051.88;5037986;28;21005;-82
2020/12/05 03:46:54;;;;;;;19.63;13.67;;;;;;;2.37;100.00;94059.59;5037976;28;20534;-83
2020/12/05 03:49:22;;;;;;;20.90;14.30;;;;;;;2.20;100.00;94057.56;5037409;28;20439;-86
2020/12/05 03:51:48;;;;;;;20.90;14.10;;;;;;;2.21;100.00;94061.63;5036122;28;20522;-85
2020/12/05 03:54:14;;;;;;;21.53;14.67;;;;;;;2.32;100.00;94060.53;5036376;28;20450;-85
2020/12/05 03:56:41;;;;;;;18.00;12.93;;;;;;;2.34;100.00;94050.75;5036134;28;20474;-85
2020/12/05 03:59:07;;;;;;;19.27;12.77;;;;;;;2.41;100.00;94057.25;5036135;28;20852;-85
2020/12/05 04:01:34;;;;;;;20.10;13.57;;;;;;;2.43;100.00;94060.78;5036019;28;20801;-85
2020/12/05 04:04:00;;;;;;;19.53;13.10;;;;;;;2.38;100.00;94066.34;5036370;28;20451;-85
2020/12/05 04:06:27;;;;;;;19.03;12.73;;;;;;;2.40;100.00;94079.78;5034483;28;20479;-85
2020/12/05 04:08:53;;;;;;;22.70;13.60;;;;;;;2.44;100.00;94096.09;5035485;28;20518;-86
2020/12/05 04:11:20;;;;;;;19.30;12.67;;;;;;;2.45;100.00;94100.16;5035969;28;20881;-86
2020/12/05 04:13:46;;;;;;;19.43;13.07;;;;;;;2.41;100.00;94115.81;5039881;28;20427;-85
2020/12/05 04:16:13;;;;;;;19.43;13.80;;;;;;;2.48;100.00;94115.03;5060477;28;20487;-85
2020/12/05 04:18:39;;;;;;;25.07;13.30;;;;;;;2.39;100.00;94112.97;5060375;28;20435;-86
2020/12/05 04:21:06;;;;;;;20.93;13.80;;;;;;;2.35;100.00;94108.00;5060380;28;20604;-85
2020/12/05 04:23:33;;;;;;;21.77;13.00;;;;;;;2.39;100.00;94126.25;5040961;28;20904;-85
2020/12/05 04:26:00;;;;;;;17.53;11.80;;;;;;;2.40;100.00;94131.06;5035569;28;20808;-86
2020/12/05 04:28:26;;;;;;;20.33;12.00;;;;;;;2.47;100.00;94134.94;5034066;28;20439;-85
2020/12/05 04:30:53;;;;;;;16.40;10.80;;;;;;;2.45;100.00;94143.44;5035586;28;20462;-85
2020/12/05 04:33:19;;;;;;;19.03;10.90;;;;;;;2.41;100.00;94131.78;5035586;28;20873;-85
2020/12/05 04:35:46;;;;;;;16.20;12.10;;;;;;;2.33;100.00;94123.09;5035536;28;20439;-85
2020/12/05 04:38:12;;;;;;;17.83;12.03;;;;;;;2.34;100.00;94137.81;5035102;28;20497;-85
2020/12/05 04:40:39;;;;;;;17.90;12.43;;;;;;;2.34;100.00;94132.50;5035271;28;20880;-85
2020/12/05 04:43:06;;;;;;;16.20;11.07;;;;;;;2.32;100.00;94116.38;5035599;28;20407;-85
2020/12/05 04:45:33;;;;;;;12.67;9.70;;;;;;;2.22;100.00;94099.59;5057141;28;20439;-85
2020/12/05 04:48:02;;;;;;;18.43;10.63;;;;;;;2.28;100.00;94105.41;5056609;28;20455;-85
2020/12/05 04:50:31;;;;;;;17.10;11.30;;;;;;;2.24;100.00;94113.03;5058041;28;20431;-85
2020/12/05 04:53:10;;;;;;;15.50;11.60;;;;;;;2.24;100.00;94124.41;5045481;28;20447;-85
2020/12/05 04:55:40;;;;;;;16.03;11.60;;;;;;;2.25;100.00;94133.09;5034787;28;20869;-85
2020/12/05 04:58:16;;;;;;;18.37;10.90;;;;;;;2.32;100.00;94148.31;5034683;28;20471;-86
2020/12/05 05:00:43;;;;;;;14.30;10.80;;;;;;;2.28;100.00;94161.97;5034750;28;20834;-86
2020/12/05 05:03:10;;;;;;;16.47;11.40;;;;;;;2.27;100.00;94168.53;5034894;28;20463;-86
2020/12/05 05:05:37;;;;;;;13.77;10.37;;;;;;;2.29;100.00;94170.69;5035172;28;20498;-88
2020/12/05 05:08:03;;;;;;;17.47;11.83;;;;;;;2.35;100.00;94171.88;5034940;28;20558;-86
2020/12/05 05:10:31;;;;;;;19.03;12.10;;;;;;;2.26;100.00;94182.38;5035116;28;20835;-86
2020/12/05 05:13:05;;;;;;;13.87;10.90;;;;;;;2.24;100.00;94204.19;5035203;28;20481;-86
2020/12/05 05:15:32;;;;;;;18.43;10.27;;;;;;;2.23;100.00;94213.41;5035032;28;20463;-86
2020/12/05 05:18:01;;;;;;;16.90;10.77;;;;;;;2.19;100.00;94233.66;5035137;28;20478;-86
2020/12/05 05:20:29;;;;;;;19.17;12.10;;;;;;;2.20;100.00;94221.75;5034871;28;20893;-85
2020/12/05 05:23:11;;;;;;;18.13;12.20;;;;;;;2.22;100.00;94221.94;5035064;28;20443;-87
2020/12/05 05:25:57;;;;;;;19.00;11.97;;;;;;;2.29;100.00;94227.22;5036449;28;20459;-83
2020/12/05 05:28:30;;;;;;;18.10;11.77;;;;;;;2.28;100.00;94244.44;5036166;28;20554;-84
2020/12/05 05:31:07;;;;;;;15.93;11.33;;;;;;;2.31;100.00;94247.97;5037732;28;20410;-83
2020/12/05 05:33:46;;;;;;;25.77;12.00;;;;;;;2.31;100.00;94266.59;5037500;28;20445;-87
2020/12/05 05:36:24;;;;;;;14.73;11.70;;;;;;;2.20;100.00;94254.38;5034559;28;20505;-86
2020/12/05 05:39:02;;;;;;;18.07;11.97;;;;;;;2.21;100.00;94257.75;5034975;28;20503;-87
2020/12/05 05:41:29;;;;;;;20.17;12.70;;;;;;;2.20;100.00;94265.03;5035393;28;20839;-86
2020/12/05 05:43:59;;;;;;;15.10;11.33;;;;;;;2.20;100.00;94259.00;5034511;28;20438;-85
2020/12/05 05:46:28;;;;;;;16.40;10.97;;;;;;;2.21;100.00;94271.06;5034450;28;20827;-85
2020/12/05 05:48:54;;;;;;;17.20;11.67;;;;;;;2.27;100.00;94276.91;5034190;28;20435;-85
2020/12/05 05:51:36;;;;;;;18.50;11.90;;;;;;;2.24;100.00;94291.97;5033839;28;20443;-85
2020/12/05 05:54:20;;;;;;;16.97;10.50;;;;;;;2.25;100.00;94274.78;5033822;28;20926;-85
2020/12/05 05:57:01;;;;;;;16.13;10.90;;;;;;;2.30;100.00;94284.53;5033988;28;20846;-85
2020/12/05 05:59:29;;;;;;;17.60;11.00;;;;;;;2.29;100.00;94285.06;5034587;28;21046;-83
2020/12/05 06:01:57;;;;;;;15.00;11.00;;;;;;;2.31;100.00;94277.97;5036352;28;20469;-83
2020/12/05 06:04:26;;;;;;;16.20;11.00;;;;;;;2.28;100.00;94283.63;5035577;28;20527;-83
2020/12/05 06:06:53;;;;;;;11.73;8.20;;;;;;;2.31;100.00;94283.28;5035307;28;20455;-83
2020/12/05 06:09:24;;;;;;;14.27;9.17;;;;;;;2.39;100.00;94280.59;5033976;28;20448;-84
2020/12/05 06:11:53;;;;;;;11.47;7.93;;;;;;;2.36;100.00;94273.69;5033982;28;20908;-84
2020/12/05 06:14:21;;;;;;;13.80;8.40;;;;;;;2.29;100.00;94277.09;5034676;28;20439;-83
2020/12/05 06:16:54;;;;;;;12.93;8.70;;;;;;;2.28;100.00;94288.97;5034722;28;20459;-83
2020/12/05 06:19:22;;;;;;;11.00;8.27;;;;;;;2.27;100.00;94298.88;5034911;28;20467;-84
2020/12/05 06:21:50;;;;;;;15.63;9.17;;;;;;;2.27;100.00;94308.81;5035779;28;20492;-83
2020/12/05 06:24:35;;;;;;;11.17;7.70;;;;;;;2.29;100.00;94307.03;5035991;28;20449;-83
2020/12/05 06:27:03;;;;;;;17.63;7.10;;;;;;;2.35;100.00;94322.84;5036824;28;20511;-86
2020/12/05 06:29:32;;;;;;;14.87;7.40;;;;;;;2.36;100.00;94321.56;5054419;28;20448;-85
2020/12/05 06:31:59;;;;;;;9.67;6.80;;;;;;;2.47;100.00;94329.19;5054422;28;20420;-85
2020/12/05 06:34:50;;;;;;;10.00;7.43;;;;;;;2.50;100.00;94354.72;5044970;28;20474;-85
2020/12/05 06:37:33;;;;;;;8.90;6.40;;;;;;;2.44;100.00;94359.53;5036793;28;20546;-83
2020/12/05 06:40:05;;;;;;;10.03;7.30;;;;;;;2.40;100.00;94361.84;5037166;28;20471;-83
2020/12/05 06:42:38;;;;;;;10.80;7.50;;;;;;;2.34;100.00;94369.28;5035214;28;20462;-83
2020/12/05 06:45:05;;;;;;;12.40;7.20;;;;;;;2.36;100.00;94370.19;5035237;28;20911;-83
2020/12/05 06:47:32;;;;;;;8.10;6.30;;;;;;;2.37;100.00;94389.50;5035306;28;20455;-83
2020/12/05 06:49:59;;;;;;;9.87;6.90;;;;;;;2.33;100.00;94381.16;5035480;28;20447;-85
2020/12/05 06:52:41;;;;;;;11.07;6.90;;;;;;;2.37;100.00;94381.53;5036992;28;20442;-85
2020/12/05 06:55:13;;;;;;;10.40;6.67;;;;;;;2.33;100.00;94373.91;5038710;28;20443;-87
2020/12/05 06:57:42;;;;;;;8.70;6.17;;;;;;;2.36;100.00;94386.13;5038267;28;20967;-87
2020/12/05 07:00:19;;;;;;;8.17;6.57;;;;;;;2.37;100.00;94386.84;5040968;28;20819;-87
2020/12/05 07:02:52;;;;;;;9.00;6.30;;;;;;;2.30;100.00;94393.59;5039345;28;20439;-86
2020/12/05 07:05:25;;;;;;;7.93;5.80;;;;;;;2.29;100.00;94402.81;5041175;28;20447;-86
2020/12/05 07:07:53;;;;;;;7.07;6.37;;;;;;;2.36;100.00;94401.38;5044527;28;20991;-84
2020/12/05 07:10:21;;;;;;;8.10;5.80;;;;;;;2.37;100.00;94394.84;5037819;28;20791;-85
2020/12/05 07:12:48;;;;;;;7.57;5.50;;;;;;;2.32;100.00;94393.75;5037098;28;20446;-86
2020/12/05 07:15:22;;;;;;;7.50;5.37;;;;;;;2.37;100.00;94387.56;5037193;28;20801;-85
2020/12/05 07:17:49;;;;;;;7.07;5.47;;;;;;;2.35;100.00;94405.31;5037551;28;20470;-85
2020/12/05 07:20:16;;;;;;;7.10;4.90;;;;;;;2.38;100.00;94398.91;5037086;28;20468;-86
2020/12/05 07:22:44;;;;;;;11.13;6.43;;;;;;;2.37;100.00;94376.22;5040962;28;20417;-82
2020/12/05 07:25:10;;;;;;;18.77;12.40;;;;;;;2.37;100.00;94378.88;5047905;28;20422;-83
2020/12/05 07:27:37;;;;;;;6.87;5.97;;;;;;;2.35;100.00;94381.38;5048047;28;20447;-83
2020/12/05 07:30:04;;;;;;;8.00;4.60;;;;;;;2.36;100.00;94372.84;5042091;28;20439;-83
2020/12/05 07:32:32;;;;;;;5.90;4.40;;;;;;;2.35;100.00;94384.03;5045154;28;20428;-86
2020/12/05 07:34:59;;;;;;;7.00;4.47;;;;;;;2.38;100.00;94375.66;5039633;28;20413;-84
2020/12/05 07:37:27;;;;;;;6.43;4.80;;;;;;;2.41;100.00;94376.56;5039448;28;20526;-84
2020/12/05 07:39:53;;;;;;;6.17;4.80;;;;;;;2.44;100.00;94394.13;5057076;28;20467;-88
2020/12/05 07:42:20;;;;;;;6.53;4.67;;;;;;;2.41;100.00;94408.50;5060848;28;20427;-84
2020/12/05 07:44:47;;;;;;;5.27;4.33;;;;;;;2.44;100.00;94413.47;5060265;28;20434;-86
2020/12/05 07:47:20;;;;;;;8.60;4.80;;;;;;;2.48;100.00;94416.47;5053015;28;20455;-86
2020/12/05 07:49:51;;;;;;;5.97;4.50;;;;;;;2.47;100.00;94425.72;5040966;28;20427;-87
2020/12/05 07:52:19;;;;;;;6.83;4.30;;;;;;;2.52;100.00;94430.13;5043312;28;20507;-85
2020/12/05 07:54:56;;;;;;;5.30;4.50;;;;;;;2.53;100.00;94422.84;5040639;28;20434;-85
2020/12/05 07:57:24;;;;;;;5.40;3.60;;;;;;;2.53;100.00;94420.19;5039613;28;20451;-85
2020/12/05 07:59:52;;;;;;;10.63;4.83;;;;;;;2.59;100.00;94429.41;5037752;28;20491;-85
2020/12/05 08:02:36;;;;;;;6.37;4.00;;;;;;;2.53;100.00;94420.19;5037968;28;20436;-86
2020/12/05 08:05:06;;;;;;;5.63;5.03;;;;;;;2.55;100.00;94437.03;5057906;28;20390;-84
2020/12/05 08:07:37;;;;;;;5.50;4.17;;;;;;;2.58;100.00;94438.63;5060079;28;20443;-86
2020/12/05 08:10:06;;;;;;;8.37;4.43;;;;;;;2.62;100.00;94433.66;5060303;28;20479;-85
2020/12/05 08:13:13;;;;;;;5.60;4.13;;;;;;;2.59;100.00;94437.41;5056087;28;20495;-88
2020/12/05 08:15:39;;;;;;;7.60;4.80;;;;;;;2.64;100.00;94443.78;5052688;28;20439;-85
2020/12/05 08:18:06;;;;;;;5.63;3.47;;;;;;;2.67;100.00;94422.13;5058917;28;20459;-86
2020/12/05 08:20:33;;;;;;;6.60;3.43;;;;;;;2.74;100.00;94426.03;5056811;28;20557;-86
2020/12/05 08:23:00;;;;;;;4.87;2.80;;;;;;;2.77;100.00;94426.91;5040104;28;20453;-86
2020/12/05 08:25:28;;;;;;;3.20;2.63;;;;;;;2.80;100.00;94425.81;5039512;28;20450;-86
2020/12/05 08:27:55;;;;;;;13.40;5.17;;;;;;;2.78;100.00;94431.69;5038756;28;20461;-87
2020/12/05 08:30:22;;;;;;;8.20;5.23;;;;;;;2.74;100.00;94439.31;5037382;28;20849;-83
2020/12/05 08:32:59;;;;;;;12.97;5.50;;;;;;;2.74;100.00;94439.31;5037788;28;20427;-83
2020/12/05 08:35:30;;;;;;;4.97;4.27;;;;;;;2.84;100.00;94442.16;5037349;28;20442;-83
2020/12/05 08:38:01;;;;;;;4.00;3.60;;;;;;;2.95;100.00;94450.47;5038960;28;20459;-84
2020/12/05 08:40:29;;;;;;;5.47;3.27;;;;;;;3.02;100.00;94460.41;5038270;28;20471;-83
2020/12/05 08:42:56;;;;;;;7.90;5.63;;;;;;;3.11;100.00;94469.78;5039042;28;20447;-83
2020/12/05 08:45:23;;;;;;;16.63;5.60;;;;;;;3.08;100.00;94479.56;5040205;28;20418;-85
2020/12/05 08:47:51;;;;;;;5.40;4.17;;;;;;;3.09;100.00;94475.66;5038478;28;20471;-83
2020/12/05 08:50:25;;;;;;;4.67;3.50;;;;;;;3.13;100.00;94486.66;5041440;28;20446;-86
2020/12/05 08:52:53;;;;;;;7.20;3.80;;;;;;;3.12;100.00;94477.25;5038759;28;20870;-86
2020/12/05 08:55:24;;;;;;;5.47;4.37;;;;;;;3.13;100.00;94491.97;5039776;28;20853;-85
2020/12/05 08:57:58;;;;;;;6.40;4.93;;;;;;;3.16;100.00;94498.22;5037151;28;20490;-85
2020/12/05 09:00:25;;;;;;;6.23;4.77;;;;;;;3.22;100.00;94499.44;5040101;28;20482;-86
2020/12/05 09:02:52;;;;;;;7.40;4.77;;;;;;;3.25;100.00;94510.97;5039411;28;20444;-85
2020/12/05 09:05:18;;;;;;;8.40;5.40;;;;;;;3.23;100.00;94524.84;5038418;28;20451;-86
2020/12/05 09:07:55;;;;;;;7.70;6.13;;;;;;;3.30;100.00;94510.06;5038987;28;20459;-86
2020/12/05 09:10:23;;;;;;;7.50;5.60;;;;;;;3.36;100.00;94512.53;5038748;28;20450;-86
2020/12/05 09:12:50;;;;;;;9.63;5.27;;;;;;;3.25;100.00;94516.31;5040485;28;20450;-83
2020/12/05 09:15:17;;;;;;;8.03;5.50;;;;;;;3.11;100.00;94507.81;5038600;28;20483;-86
2020/12/05 09:17:43;;;;;;;10.43;5.93;;;;;;;3.23;100.00;94514.19;5038268;28;20525;-86
2020/12/05 09:20:17;;;;;;;8.47;5.70;;;;;;;3.19;100.00;94518.47;5046416;28;20848;-86
2020/12/05 09:22:48;;;;;;;14.10;6.43;;;;;;;3.16;100.00;94496.25;5040141;28;20447;-88
2020/12/05 09:25:29;;;;;;;15.63;6.03;;;;;;;3.23;100.00;94500.84;5039201;28;20471;-87
2020/12/05 09:27:56;;;;;;;10.57;6.20;;;;;;;3.21;100.00;94505.31;5036553;28;20471;-85
2020/12/05 09:30:24;;;;;;;10.60;6.90;;;;;;;3.20;100.00;94509.91;5036672;28;20888;-85
2020/12/05 09:32:52;;;;;;;11.13;7.30;;;;;;;2.97;100.00;94511.22;5036342;28;20419;-87
2020/12/05 09:35:20;;;;;;;14.37;9.30;;;;;;;2.89;100.00;94511.19;5039087;28;20474;-84
2020/12/05 09:37:47;;;;;;;11.90;7.77;;;;;;;2.92;100.00;94520.06;5036721;28;20472;-83
2020/12/05 09:40:16;;;;;;;11.40;8.13;;;;;;;2.97;100.00;94527.19;5036440;28;20487;-83
2020/12/05 09:42:43;;;;;;;11.60;8.77;;;;;;;3.24;100.00;94536.19;5035870;28;20439;-84
2020/12/05 09:45:11;;;;;;;14.80;10.10;;;;;;;3.20;100.00;94536.56;5036623;28;20844;-84
2020/12/05 09:47:40;;;;;;;14.83;11.07;;;;;;;3.02;100.00;94542.25;5037120;28;20497;-84
2020/12/05 09:50:07;;;;;;;16.13;13.00;;;;;;;2.89;100.00;94543.16;5036869;28;20458;-85
2020/12/05 09:52:33;;;;;;;19.17;13.27;;;;;;;2.87;100.00;94547.59;5037774;28;20487;-84
2020/12/05 09:55:00;;;;;;;18.40;14.10;;;;;;;2.93;100.00;94561.44;5036764;28;20447;-83
2020/12/05 09:57:26;;;;;;;17.97;11.33;;;;;;;3.12;100.00;94554.53;5036139;28;20471;-86
2020/12/05 09:59:53;;;;;;;17.83;12.87;;;;;;;3.18;100.00;94543.69;5035760;28;20489;-84
2020/12/05 10:02:19;;;;;;;15.60;11.80;;;;;;;3.11;100.00;94547.75;5036150;28;20873;-84
2020/12/05 10:04:47;;;;;;;18.50;12.30;;;;;;;3.21;100.00;94542.59;5041769;28;20463;-86
2020/12/05 10:07:13;;;;;;;14.73;11.00;;;;;;;3.19;100.00;94537.81;5043265;28;20447;-85
2020/12/05 10:09:40;;;;;;;15.20;12.20;;;;;;;3.33;100.00;94540.28;5037313;28;21009;-84
2020/12/05 10:12:06;;;;;;;15.90;11.90;;;;;;;3.26;100.00;94539.03;5037774;28;20443;-84
2020/12/05 10:14:33;;;;;;;15.27;12.40;;;;;;;3.32;100.00;94530.88;5038332;28;20522;-86
2020/12/05 10:16:59;;;;;;;16.60;12.60;;;;;;;3.40;100.00;94532.25;5036916;28;20482;-85
2020/12/05 10:19:26;;;;;;;16.00;11.30;;;;;;;3.45;100.00;94518.03;5036391;28;20428;-84
2020/12/05 10:21:53;;;;;;;15.07;10.37;;;;;;;3.38;100.00;94518.06;5035816;28;20442;-84
2020/12/05 10:24:20;;;;;;;15.00;10.47;;;;;;;3.31;100.00;94524.81;5037763;28;20508;-87
2020/12/05 10:26:47;;;;;;;13.43;10.30;;;;;;;3.54;99.97;94543.44;5038780;28;20474;-85
2020/12/05 10:29:14;;;;;;;14.00;11.33;;;;;;;3.45;99.72;94535.97;5039363;28;20431;-84
2020/12/05 10:31:44;;;;;;;18.30;10.53;;;;;;;3.41;100.00;94533.69;5041731;28;20511;-85
2020/12/05 10:34:11;;;;;;;13.20;9.83;;;;;;;3.41;100.00;94547.03;5041716;28;20478;-86
2020/12/05 10:36:37;;;;;;;14.27;9.87;;;;;;;3.40;100.00;94548.25;5044870;28;20482;-84
2020/12/05 10:39:04;;;;;;;13.10;9.63;;;;;;;3.34;100.00;94563.00;5060802;28;20491;-86
2020/12/05 10:41:31;;;;;;;15.50;10.83;;;;;;;3.36;100.00;94573.84;5060442;28;20463;-84
2020/12/05 10:43:57;;;;;;;16.77;11.03;;;;;;;3.36;100.00;94573.84;5060791;28;20423;-85
2020/12/05 10:46:24;;;;;;;14.30;11.33;;;;;;;3.32;100.00;94570.84;5050592;28;20475;-86
2020/12/05 10:48:51;;;;;;;14.50;11.20;;;;;;;3.21;100.00;94574.59;5043140;28;20958;-86
2020/12/05 10:51:17;;;;;;;20.03;12.60;;;;;;;3.27;100.00;94572.44;5042835;28;20501;-86
2020/12/05 10:53:43;;;;;;;15.93;10.70;;;;;;;3.36;100.00;94577.22;5042695;28;20446;-85
2020/12/05 10:56:11;;;;;;;14.90;11.07;;;;;;;3.50;100.00;94583.78;5042246;28;20447;-86
2020/12/05 10:58:37;;;;;;;11.70;9.57;;;;;;;3.53;100.00;94579.34;5040564;28;20519;-85
2020/12/05 11:01:03;;;;;;;13.07;9.57;;;;;;;3.48;100.00;94569.56;5039567;28;20478;-84
2020/12/05 11:03:30;;;;;;;12.00;8.17;;;;;;;3.63;100.00;94572.22;5040510;28;20417;-85
2020/12/05 11:05:56;;;;;;;12.40;7.73;;;;;;;3.58;99.83;94570.44;5040953;28;20444;-82
2020/12/05 11:08:23;;;;;;;10.33;8.40;;;;;;;3.63;100.00;94596.19;5042990;28;20538;-85
2020/12/05 11:10:49;;;;;;;10.40;7.57;;;;;;;3.67;100.00;94593.88;5041041;28;20470;-84
2020/12/05 11:13:17;;;;;;;10.07;7.83;;;;;;;3.71;100.00;94583.56;5040160;28;20445;-85
2020/12/05 11:15:44;;;;;;;11.23;8.97;;;;;;;3.64;99.62;94573.59;5041253;28;20866;-85
2020/12/05 11:18:10;;;;;;;10.70;7.80;;;;;;;3.57;99.68;94567.03;5042582;28;20509;-89
2020/12/05 11:20:37;;;;;;;14.37;10.50;;;;;;;3.66;100.00;94555.13;5040832;28;20494;-85
2020/12/05 11:23:03;;;;;;;11.53;7.83;;;;;;;3.43;100.00;94557.13;5041864;28;20525;-86
2020/12/05 11:25:29;;;;;;;14.10;9.90;;;;;;;3.39;100.00;94562.09;5039560;28;20431;-85
2020/12/05 11:27:56;;;;;;;10.80;8.10;;;;;;;3.36;100.00;94557.84;5039755;28;21070;-85
2020/12/05 11:30:23;;;;;;;14.67;8.17;;;;;;;3.36;100.00;94552.53;5040236;28;20530;-84
2020/12/05 11:32:50;;;;;;;13.70;9.03;;;;;;;3.41;100.00;94559.63;5040669;28;20422;-84